sensor_id;sensor_type;location;lat;lon;timestamp;pressure;altitude;pressure_sealevel;temperature;humidity
10587;BME280;5341;47.606;7.576;2023-01-09T00:00:12;97258.19;;;10.58;77.04
10587;BME280;5341;47.606;7.576;2023-01-09T00:02:40;97264.34;;;10.59;76.94
10587;BME280;5341;47.606;7.576;2023-01-09T00:05:11;97265.97;;;10.60;76.82
10587;BME280;5341;47.606;7.576;2023-01-09T00:07:40;97283.88;;;10.59;77.05
10587;BME280;5341;47.606;7.576;2023-01-09T00:10:10;97289.22;;;10.59;76.85
10587;BME280;5341;47.606;7.576;2023-01-09T00:12:38;97298.03;;;10.60;77.01
10587;BME280;5341;47.606;7.576;2023-01-09T00:15:09;97291.66;;;10.61;77.15
10587;BME280;5341;47.606;7.576;2023-01-09T00:17:37;97284.69;;;10.60;77.19
10587;BME280;5341;47.606;7.576;2023-01-09T00:20:07;97291.28;;;10.57;76.98
10587;BME280;5341;47.606;7.576;2023-01-09T00:22:36;97300.13;;;10.57;77.31
10587;BME280;5341;47.606;7.576;2023-01-09T00:25:05;97303.03;;;10.56;77.31
10587;BME280;5341;47.606;7.576;2023-01-09T00:27:33;97305.09;;;10.54;77.92
10587;BME280;5341;47.606;7.576;2023-01-09T00:30:01;97321.13;;;10.54;77.10
10587;BME280;5341;47.606;7.576;2023-01-09T00:32:31;97328.53;;;10.52;77.71
10587;BME280;5341;47.606;7.576;2023-01-09T00:35:02;97335.13;;;10.49;77.66
10587;BME280;5341;47.606;7.576;2023-01-09T00:37:31;97335.13;;;10.49;77.75
10587;BME280;5341;47.606;7.576;2023-01-09T00:39:59;97343.38;;;10.48;77.85
10587;BME280;5341;47.606;7.576;2023-01-09T00:42:31;97352.84;;;10.44;78.11
10587;BME280;5341;47.606;7.576;2023-01-09T00:45:03;97358.44;;;10.36;78.06
10587;BME280;5341;47.606;7.576;2023-01-09T00:47:41;97351.94;;;10.25;78.03
10587;BME280;5341;47.606;7.576;2023-01-09T00:50:14;97339.41;;;10.19;78.20
10587;BME280;5341;47.606;7.576;2023-01-09T00:52:44;97319.50;;;10.15;78.02
10587;BME280;5341;47.606;7.576;2023-01-09T00:55:14;97316.66;;;10.10;77.69
10587;BME280;5341;47.606;7.576;2023-01-09T00:57:42;97305.97;;;10.10;77.60
10587;BME280;5341;47.606;7.576;2023-01-09T01:00:11;97288.47;;;10.14;77.81
10587;BME280;5341;47.606;7.576;2023-01-09T01:02:44;97285.59;;;10.15;77.11
10587;BME280;5341;47.606;7.576;2023-01-09T01:05:12;97293.78;;;10.20;77.91
10587;BME280;5341;47.606;7.576;2023-01-09T01:07:59;97308.59;;;10.23;77.03
10587;BME280;5341;47.606;7.576;2023-01-09T01:10:28;97298.72;;;10.23;77.03
10587;BME280;5341;47.606;7.576;2023-01-09T01:12:57;97306.53;;;10.25;76.57
10587;BME280;5341;47.606;7.576;2023-01-09T01:15:26;97312.47;;;10.27;76.40
10587;BME280;5341;47.606;7.576;2023-01-09T01:17:57;97314.31;;;10.26;76.34
10587;BME280;5341;47.606;7.576;2023-01-09T01:20:26;97316.16;;;10.26;76.60
10587;BME280;5341;47.606;7.576;2023-01-09T01:22:56;97312.47;;;10.27;77.00
10587;BME280;5341;47.606;7.576;2023-01-09T01:25:25;97306.06;;;10.28;76.26
10587;BME280;5341;47.606;7.576;2023-01-09T01:27:54;97304.22;;;10.28;76.54
10587;BME280;5341;47.606;7.576;2023-01-09T01:30:21;97314.72;;;10.30;76.27
10587;BME280;5341;47.606;7.576;2023-01-09T01:32:49;97318.41;;;10.29;76.00
10587;BME280;5341;47.606;7.576;2023-01-09T01:35:18;97322.09;;;10.28;76.23
10587;BME280;5341;47.606;7.576;2023-01-09T01:37:46;97330.75;;;10.30;76.58
10587;BME280;5341;47.606;7.576;2023-01-09T01:42:46;97338.56;;;10.32;76.53
10587;BME280;5341;47.606;7.576;2023-01-09T01:45:15;97335.06;;;10.31;76.84
10587;BME280;5341;47.606;7.576;2023-01-09T01:47:51;97350.06;;;10.32;76.78
10587;BME280;5341;47.606;7.576;2023-01-09T01:50:26;97351.69;;;10.33;76.68
10587;BME280;5341;47.606;7.576;2023-01-09T01:52:59;97359.72;;;10.33;76.65
10587;BME280;5341;47.606;7.576;2023-01-09T01:55:28;97365.88;;;10.34;76.51
10587;BME280;5341;47.606;7.576;2023-01-09T01:58:00;97364.00;;;10.34;76.01
10587;BME280;5341;47.606;7.576;2023-01-09T02:00:35;97368.53;;;10.34;76.17
10587;BME280;5341;47.606;7.576;2023-01-09T02:03:05;97372.25;;;10.33;76.14
10587;BME280;5341;47.606;7.576;2023-01-09T02:05:38;97375.75;;;10.33;76.08
10587;BME280;5341;47.606;7.576;2023-01-09T02:08:06;97396.50;;;10.31;76.23
10587;BME280;5341;47.606;7.576;2023-01-09T02:10:36;97392.03;;;10.18;76.52
10587;BME280;5341;47.606;7.576;2023-01-09T02:13:05;97392.03;;;10.12;76.99
10587;BME280;5341;47.606;7.576;2023-01-09T02:15:42;97412.59;;;10.05;77.01
10587;BME280;5341;47.606;7.576;2023-01-09T02:18:22;97411.84;;;9.97;77.20
10587;BME280;5341;47.606;7.576;2023-01-09T02:20:58;97428.06;;;9.96;77.67
10587;BME280;5341;47.606;7.576;2023-01-09T02:23:56;97414.69;;;10.03;77.31
10587;BME280;5341;47.606;7.576;2023-01-09T02:27:03;97428.63;;;10.05;77.69
10587;BME280;5341;47.606;7.576;2023-01-09T02:29:44;97421.28;;;10.00;77.07
10587;BME280;5341;47.606;7.576;2023-01-09T02:32:22;97425.56;;;10.01;77.14
10587;BME280;5341;47.606;7.576;2023-01-09T02:35:02;97430.09;;;10.01;77.25
10587;BME280;5341;47.606;7.576;2023-01-09T02:37:38;97433.00;;;9.92;77.18
10587;BME280;5341;47.606;7.576;2023-01-09T02:40:17;97441.25;;;9.84;76.86
10587;BME280;5341;47.606;7.576;2023-01-09T02:42:48;97439.84;;;9.75;76.78
10587;BME280;5341;47.606;7.576;2023-01-09T02:45:17;97448.47;;;9.71;76.89
10587;BME280;5341;47.606;7.576;2023-01-09T02:47:46;97457.09;;;9.66;77.18
10587;BME280;5341;47.606;7.576;2023-01-09T02:50:17;97469.41;;;9.67;76.84
10587;BME280;5341;47.606;7.576;2023-01-09T02:56:18;97511.50;;;9.72;77.17
10587;BME280;5341;47.606;7.576;2023-01-09T02:59:12;97519.91;;;9.68;76.46
10587;BME280;5341;47.606;7.576;2023-01-09T03:01:55;97530.78;;;9.67;76.86
10587;BME280;5341;47.606;7.576;2023-01-09T03:04:36;97538.59;;;9.68;76.77
10587;BME280;5341;47.606;7.576;2023-01-09T03:07:12;97556.47;;;9.68;76.77
10587;BME280;5341;47.606;7.576;2023-01-09T03:09:42;97568.16;;;9.67;76.95
10587;BME280;5341;47.606;7.576;2023-01-09T03:12:16;97579.44;;;9.69;76.73
10587;BME280;5341;47.606;7.576;2023-01-09T03:14:48;97589.13;;;9.70;76.42
10587;BME280;5341;47.606;7.576;2023-01-09T03:17:21;97589.50;;;9.67;76.08
10587;BME280;5341;47.606;7.576;2023-01-09T03:19:52;97602.03;;;9.66;76.03
10587;BME280;5341;47.606;7.576;2023-01-09T03:22:21;97604.50;;;9.68;76.52
10587;BME280;5341;47.606;7.576;2023-01-09T03:24:48;97609.66;;;9.69;76.36
10587;BME280;5341;47.606;7.576;2023-01-09T03:27:17;97627.31;;;9.71;76.53
10587;BME280;5341;47.606;7.576;2023-01-09T03:29:45;97647.22;;;9.68;76.24
10587;BME280;5341;47.606;7.576;2023-01-09T03:32:13;97652.56;;;9.61;76.11
10587;BME280;5341;47.606;7.576;2023-01-09T03:34:41;97661.81;;;9.59;75.75
10587;BME280;5341;47.606;7.576;2023-01-09T03:37:10;97668.78;;;9.60;76.19
10587;BME280;5341;47.606;7.576;2023-01-09T03:39:37;97669.59;;;9.60;76.18
10587;BME280;5341;47.606;7.576;2023-01-09T03:42:06;97672.47;;;9.59;75.72
10587;BME280;5341;47.606;7.576;2023-01-09T03:44:34;97683.53;;;9.56;75.47
10587;BME280;5341;47.606;7.576;2023-01-09T03:47:02;97671.81;;;9.44;75.13
10587;BME280;5341;47.606;7.576;2023-01-09T03:49:30;97676.31;;;9.36;75.37
10587;BME280;5341;47.606;7.576;2023-01-09T03:51:58;97696.03;;;9.35;74.70
10587;BME280;5341;47.606;7.576;2023-01-09T03:54:28;97699.50;;;9.36;75.04
10587;BME280;5341;47.606;7.576;2023-01-09T03:56:55;97698.47;;;9.37;74.80
10587;BME280;5341;47.606;7.576;2023-01-09T03:59:23;97705.25;;;9.39;75.02
10587;BME280;5341;47.606;7.576;2023-01-09T04:01:51;97716.13;;;9.45;74.84
10587;BME280;5341;47.606;7.576;2023-01-09T04:04:19;97714.31;;;9.45;74.32
10587;BME280;5341;47.606;7.576;2023-01-09T04:06:47;97734.44;;;9.48;74.78
10587;BME280;5341;47.606;7.576;2023-01-09T04:09:15;97737.69;;;9.43;74.07
10587;BME280;5341;47.606;7.576;2023-01-09T04:11:47;97738.31;;;9.38;74.08
10587;BME280;5341;47.606;7.576;2023-01-09T04:14:18;97748.75;;;9.33;73.45
10587;BME280;5341;47.606;7.576;2023-01-09T04:16:47;97759.81;;;9.30;73.48
10587;BME280;5341;47.606;7.576;2023-01-09T04:19:15;97763.28;;;9.31;73.65
10587;BME280;5341;47.606;7.576;2023-01-09T04:21:45;97757.75;;;9.32;73.64
10587;BME280;5341;47.606;7.576;2023-01-09T04:24:13;97760.25;;;9.34;73.41
10587;BME280;5341;47.606;7.576;2023-01-09T04:26:40;97770.28;;;9.32;73.12
10587;BME280;5341;47.606;7.576;2023-01-09T04:29:09;97776.84;;;9.29;72.93
10587;BME280;5341;47.606;7.576;2023-01-09T04:31:37;97780.31;;;9.30;73.09
10587;BME280;5341;47.606;7.576;2023-01-09T04:34:05;97793.47;;;9.31;73.87
10587;BME280;5341;47.606;7.576;2023-01-09T04:36:33;97794.72;;;9.35;73.12
10587;BME280;5341;47.606;7.576;2023-01-09T04:39:01;97800.50;;;9.39;73.68
10587;BME280;5341;47.606;7.576;2023-01-09T04:41:29;97798.84;;;9.38;73.05
10587;BME280;5341;47.606;7.576;2023-01-09T04:44:15;97807.25;;;9.35;72.77
10587;BME280;5341;47.606;7.576;2023-01-09T04:46:43;97817.19;;;9.20;71.65
10587;BME280;5341;47.606;7.576;2023-01-09T04:49:11;97821.09;;;9.17;72.58
10587;BME280;5341;47.606;7.576;2023-01-09T04:51:39;97831.75;;;9.17;72.51
10587;BME280;5341;47.606;7.576;2023-01-09T04:54:07;97837.06;;;9.10;72.07
10587;BME280;5341;47.606;7.576;2023-01-09T04:56:34;97844.19;;;9.03;72.64
10587;BME280;5341;47.606;7.576;2023-01-09T04:59:02;97843.38;;;9.03;72.41
10587;BME280;5341;47.606;7.576;2023-01-09T05:01:33;97844.38;;;9.02;72.64
10587;BME280;5341;47.606;7.576;2023-01-09T05:04:01;97852.00;;;9.05;72.85
10587;BME280;5341;47.606;7.576;2023-01-09T05:06:38;97860.41;;;9.08;72.90
10587;BME280;5341;47.606;7.576;2023-01-09T05:09:19;97854.09;;;9.09;72.94
10587;BME280;5341;47.606;7.576;2023-01-09T05:11:47;97852.88;;;9.12;72.94
10587;BME280;5341;47.606;7.576;2023-01-09T05:14:15;97856.78;;;9.16;73.36
10587;BME280;5341;47.606;7.576;2023-01-09T05:16:44;97853.91;;;9.18;73.33
10587;BME280;5341;47.606;7.576;2023-01-09T05:19:12;97854.53;;;9.20;73.14
10587;BME280;5341;47.606;7.576;2023-01-09T05:21:40;97844.53;;;9.22;73.12
10587;BME280;5341;47.606;7.576;2023-01-09T05:24:08;97839.81;;;9.24;73.17
10587;BME280;5341;47.606;7.576;2023-01-09T05:26:36;97838.78;;;9.25;73.13
10587;BME280;5341;47.606;7.576;2023-01-09T05:29:04;97836.94;;;9.25;72.67
10587;BME280;5341;47.606;7.576;2023-01-09T05:31:31;97836.75;;;9.27;73.11
10587;BME280;5341;47.606;7.576;2023-01-09T05:34:00;97847.41;;;9.27;72.91
10587;BME280;5341;47.606;7.576;2023-01-09T05:36:28;97841.25;;;9.26;73.05
10587;BME280;5341;47.606;7.576;2023-01-09T05:38:56;97848.44;;;9.26;72.25
10587;BME280;5341;47.606;7.576;2023-01-09T05:41:23;97840.44;;;9.26;72.11
10587;BME280;5341;47.606;7.576;2023-01-09T05:43:53;97840.44;;;9.26;72.41
10587;BME280;5341;47.606;7.576;2023-01-09T05:46:21;97843.09;;;9.26;72.15
10587;BME280;5341;47.606;7.576;2023-01-09T05:48:49;97841.25;;;9.26;72.50
10587;BME280;5341;47.606;7.576;2023-01-09T05:51:18;97839.41;;;9.27;72.58
10587;BME280;5341;47.606;7.576;2023-01-09T05:53:46;97834.09;;;9.27;72.30
10587;BME280;5341;47.606;7.576;2023-01-09T05:56:18;97828.94;;;9.25;72.23
10587;BME280;5341;47.606;7.576;2023-01-09T05:58:47;97840.63;;;9.24;71.68
10587;BME280;5341;47.606;7.576;2023-01-09T06:01:17;97830.16;;;9.23;71.76
10587;BME280;5341;47.606;7.576;2023-01-09T06:03:47;97824.00;;;9.22;71.78
10587;BME280;5341;47.606;7.576;2023-01-09T06:06:14;97825.84;;;9.22;71.37
10587;BME280;5341;47.606;7.576;2023-01-09T06:08:45;97825.19;;;9.20;71.76
10587;BME280;5341;47.606;7.576;2023-01-09T06:11:14;97829.91;;;9.18;71.43
10587;BME280;5341;47.606;7.576;2023-01-09T06:13:42;97828.28;;;9.17;71.21
10587;BME280;5341;47.606;7.576;2023-01-09T06:16:12;97832.16;;;9.14;71.00
10587;BME280;5341;47.606;7.576;2023-01-09T06:18:40;97832.16;;;9.14;70.32
10587;BME280;5341;47.606;7.576;2023-01-09T06:21:07;97828.88;;;9.12;70.09
10587;BME280;5341;47.606;7.576;2023-01-09T06:23:35;97834.41;;;9.10;70.04
10587;BME280;5341;47.606;7.576;2023-01-09T06:26:05;97836.25;;;9.10;70.57
10587;BME280;5341;47.606;7.576;2023-01-09T06:28:33;97838.91;;;9.10;69.54
10587;BME280;5341;47.606;7.576;2023-01-09T06:31:00;97837.06;;;9.10;70.32
10587;BME280;5341;47.606;7.576;2023-01-09T06:33:29;97832.75;;;9.09;69.27
10587;BME280;5341;47.606;7.576;2023-01-09T06:35:57;97834.78;;;9.07;69.65
10587;BME280;5341;47.606;7.576;2023-01-09T06:38:25;97843.59;;;9.08;68.82
10587;BME280;5341;47.606;7.576;2023-01-09T06:40:53;97831.28;;;9.07;69.07
10587;BME280;5341;47.606;7.576;2023-01-09T06:43:27;97830.47;;;9.06;69.11
10587;BME280;5341;47.606;7.576;2023-01-09T06:45:55;97834.16;;;9.05;68.04
10587;BME280;5341;47.606;7.576;2023-01-09T06:48:23;97844.00;;;9.05;68.21
10587;BME280;5341;47.606;7.576;2023-01-09T06:50:51;97830.84;;;9.03;68.50
10587;BME280;5341;47.606;7.576;2023-01-09T06:53:19;97829.00;;;9.04;68.02
10587;BME280;5341;47.606;7.576;2023-01-09T06:55:48;97832.50;;;9.04;67.98
10587;BME280;5341;47.606;7.576;2023-01-09T06:58:18;97830.84;;;9.03;67.82
10587;BME280;5341;47.606;7.576;2023-01-09T07:00:48;97832.50;;;9.04;67.66
10587;BME280;5341;47.606;7.576;2023-01-09T07:03:19;97829.00;;;9.04;67.44
10587;BME280;5341;47.606;7.576;2023-01-09T07:05:48;97820.38;;;9.02;67.33
10587;BME280;5341;47.606;7.576;2023-01-09T07:08:17;97815.88;;;9.02;67.07
10587;BME280;5341;47.606;7.576;2023-01-09T07:10:45;97820.38;;;9.02;67.36
10587;BME280;5341;47.606;7.576;2023-01-09T07:13:13;97827.38;;;9.03;67.10
10587;BME280;5341;47.606;7.576;2023-01-09T07:15:41;97823.88;;;9.02;66.87
10587;BME280;5341;47.606;7.576;2023-01-09T07:18:12;97819.56;;;9.01;66.63
10587;BME280;5341;47.606;7.576;2023-01-09T07:20:40;97823.88;;;9.02;66.22
10587;BME280;5341;47.606;7.576;2023-01-09T07:23:10;97814.22;;;9.01;67.11
10587;BME280;5341;47.606;7.576;2023-01-09T07:25:38;97814.22;;;9.01;66.60
10587;BME280;5341;47.606;7.576;2023-01-09T07:28:07;97809.94;;;9.00;66.84
10587;BME280;5341;47.606;7.576;2023-01-09T07:30:39;97812.78;;;8.99;66.29
10587;BME280;5341;47.606;7.576;2023-01-09T07:33:07;97811.97;;;8.98;66.24
10587;BME280;5341;47.606;7.576;2023-01-09T07:35:37;97811.16;;;8.98;66.32
10587;BME280;5341;47.606;7.576;2023-01-09T07:38:05;97805.00;;;8.97;66.50
10587;BME280;5341;47.606;7.576;2023-01-09T07:40:32;97807.81;;;8.96;66.15
10587;BME280;5341;47.606;7.576;2023-01-09T07:43:00;97810.69;;;8.94;66.80
10587;BME280;5341;47.606;7.576;2023-01-09T07:45:28;97805.34;;;8.94;66.52
10587;BME280;5341;47.606;7.576;2023-01-09T07:47:56;97811.72;;;8.93;66.67
10587;BME280;5341;47.606;7.576;2023-01-09T07:50:24;97806.56;;;8.92;66.60
10587;BME280;5341;47.606;7.576;2023-01-09T07:52:54;97804.72;;;8.92;66.58
10587;BME280;5341;47.606;7.576;2023-01-09T07:55:21;97803.91;;;8.92;66.41
10587;BME280;5341;47.606;7.576;2023-01-09T07:57:49;97811.09;;;8.91;66.64
10587;BME280;5341;47.606;7.576;2023-01-09T08:00:18;97799.41;;;8.92;66.98
10587;BME280;5341;47.606;7.576;2023-01-09T08:02:50;97808.03;;;8.94;66.89
10587;BME280;5341;47.606;7.576;2023-01-09T08:05:19;97809.03;;;8.93;66.49
10587;BME280;5341;47.606;7.576;2023-01-09T08:07:47;97813.34;;;8.94;66.76
10587;BME280;5341;47.606;7.576;2023-01-09T08:10:17;97803.50;;;8.95;66.88
10587;BME280;5341;47.606;7.576;2023-01-09T08:12:46;97800.84;;;8.95;66.72
10587;BME280;5341;47.606;7.576;2023-01-09T08:15:16;97803.31;;;8.96;66.74
10587;BME280;5341;47.606;7.576;2023-01-09T08:17:45;97798.84;;;8.97;66.48
10587;BME280;5341;47.606;7.576;2023-01-09T08:20:14;97799.66;;;8.97;66.30
10587;BME280;5341;47.606;7.576;2023-01-09T08:22:44;97794.31;;;8.97;66.05
10587;BME280;5341;47.606;7.576;2023-01-09T08:25:14;97795.16;;;8.98;66.26
10587;BME280;5341;47.606;7.576;2023-01-09T08:27:44;97805.63;;;8.99;66.48
10587;BME280;5341;47.606;7.576;2023-01-09T08:30:12;97804.78;;;8.99;66.10
10587;BME280;5341;47.606;7.576;2023-01-09T08:32:40;97803.56;;;9.01;66.85
10587;BME280;5341;47.606;7.576;2023-01-09T08:35:12;97803.56;;;9.01;66.52
10587;BME280;5341;47.606;7.576;2023-01-09T08:37:42;97810.75;;;9.01;66.56
10587;BME280;5341;47.606;7.576;2023-01-09T08:40:11;97808.06;;;9.01;66.73
10587;BME280;5341;47.606;7.576;2023-01-09T08:42:39;97799.06;;;9.02;66.38
10587;BME280;5341;47.606;7.576;2023-01-09T08:45:26;97812.41;;;9.02;66.55
10587;BME280;5341;47.606;7.576;2023-01-09T08:48:20;97807.88;;;9.02;66.43
10587;BME280;5341;47.606;7.576;2023-01-09T08:50:47;97815.06;;;9.02;66.54
10587;BME280;5341;47.606;7.576;2023-01-09T08:53:15;97824.69;;;9.03;67.11
10587;BME280;5341;47.606;7.576;2023-01-09T08:55:43;97821.84;;;9.04;67.32
10587;BME280;5341;47.606;7.576;2023-01-09T08:58:14;97820.81;;;9.05;67.15
10587;BME280;5341;47.606;7.576;2023-01-09T09:00:48;97824.09;;;9.07;67.39
10587;BME280;5341;47.606;7.576;2023-01-09T09:03:18;97827.44;;;9.09;66.89
10587;BME280;5341;47.606;7.576;2023-01-09T09:05:47;97824.75;;;9.09;66.91
10587;BME280;5341;47.606;7.576;2023-01-09T09:08:19;97821.91;;;9.11;66.82
10587;BME280;5341;47.606;7.576;2023-01-09T09:10:48;97828.88;;;9.12;66.30
10587;BME280;5341;47.606;7.576;2023-01-09T09:13:16;97816.97;;;9.15;66.07
10587;BME280;5341;47.606;7.576;2023-01-09T09:15:44;97807.97;;;9.16;66.06
10587;BME280;5341;47.606;7.576;2023-01-09T09:18:15;97814.94;;;9.17;65.97
10587;BME280;5341;47.606;7.576;2023-01-09T09:20:44;97806.75;;;9.18;65.52
10587;BME280;5341;47.606;7.576;2023-01-09T09:23:16;97808.22;;;9.21;65.74
10587;BME280;5341;47.606;7.576;2023-01-09T09:25:46;97802.28;;;9.25;65.79
10587;BME280;5341;47.606;7.576;2023-01-09T09:28:14;97796.34;;;9.30;65.87
10587;BME280;5341;47.606;7.576;2023-01-09T09:30:48;97810.94;;;9.34;65.57
10587;BME280;5341;47.606;7.576;2023-01-09T09:33:20;97808.50;;;9.39;66.00
10587;BME280;5341;47.606;7.576;2023-01-09T09:35:50;97806.25;;;9.43;66.32
10587;BME280;5341;47.606;7.576;2023-01-09T09:38:23;97804.19;;;9.45;66.22
10587;BME280;5341;47.606;7.576;2023-01-09T09:41:08;97812.66;;;9.48;66.00
10587;BME280;5341;47.606;7.576;2023-01-09T09:44:15;97821.28;;;9.50;66.05
10587;BME280;5341;47.606;7.576;2023-01-09T09:47:07;97808.34;;;9.54;66.12
10587;BME280;5341;47.606;7.576;2023-01-09T09:49:43;97813.28;;;9.57;66.51
10587;BME280;5341;47.606;7.576;2023-01-09T09:52:24;97812.09;;;9.59;66.21
10587;BME280;5341;47.606;7.576;2023-01-09T09:55:03;97813.72;;;9.60;66.06
10587;BME280;5341;47.606;7.576;2023-01-09T09:57:36;97820.72;;;9.61;66.12
10587;BME280;5341;47.606;7.576;2023-01-09T10:00:09;97817.84;;;9.63;65.87
10587;BME280;5341;47.606;7.576;2023-01-09T10:02:44;97814.34;;;9.62;65.65
10587;BME280;5341;47.606;7.576;2023-01-09T10:05:21;97820.47;;;9.56;65.34
10587;BME280;5341;47.606;7.576;2023-01-09T10:07:55;97804.25;;;9.51;65.25
10587;BME280;5341;47.606;7.576;2023-01-09T10:10:33;97819.44;;;9.51;65.71
10587;BME280;5341;47.606;7.576;2023-01-09T10:13:03;97810.59;;;9.50;65.64
10587;BME280;5341;47.606;7.576;2023-01-09T10:15:52;97819.22;;;9.52;66.07
10587;BME280;5341;47.606;7.576;2023-01-09T10:18:31;97811.44;;;9.51;66.07
10587;BME280;5341;47.606;7.576;2023-01-09T10:21:21;97806.28;;;9.49;66.09
10587;BME280;5341;47.606;7.576;2023-01-09T10:24:08;97805.47;;;9.49;66.03
10587;BME280;5341;47.606;7.576;2023-01-09T10:26:47;97810.81;;;9.49;66.07
10587;BME280;5341;47.606;7.576;2023-01-09T10:35:32;97829.91;;;9.52;66.49
10587;BME280;5341;47.606;7.576;2023-01-09T10:38:12;97824.97;;;9.49;66.92
10587;BME280;5341;47.606;7.576;2023-01-09T10:40:49;97827.78;;;9.41;66.37
10587;BME280;5341;47.606;7.576;2023-01-09T10:43:26;97836.00;;;9.39;66.63
10587;BME280;5341;47.606;7.576;2023-01-09T10:46:03;97836.19;;;9.38;67.33
10587;BME280;5341;47.606;7.576;2023-01-09T10:48:34;97848.72;;;9.37;67.53
10587;BME280;5341;47.606;7.576;2023-01-09T10:51:14;97846.25;;;9.36;67.85
10587;BME280;5341;47.606;7.576;2023-01-09T10:53:49;97840.28;;;9.34;68.27
10587;BME280;5341;47.606;7.576;2023-01-09T10:56:29;97834.75;;;9.35;67.97
10587;BME280;5341;47.606;7.576;2023-01-09T10:58:58;97831.88;;;9.37;68.19
10587;BME280;5341;47.606;7.576;2023-01-09T11:01:27;97836.19;;;9.38;68.05
10587;BME280;5341;47.606;7.576;2023-01-09T11:03:57;97827.78;;;9.41;67.75
10587;BME280;5341;47.606;7.576;2023-01-09T11:06:31;97831.53;;;9.47;67.63
10587;BME280;5341;47.606;7.576;2023-01-09T11:09:04;97838.88;;;9.45;67.48
10587;BME280;5341;47.606;7.576;2023-01-09T11:11:34;97829.88;;;9.46;67.62
10587;BME280;5341;47.606;7.576;2023-01-09T11:14:14;97827.00;;;9.47;67.56
10587;BME280;5341;47.606;7.576;2023-01-09T11:16:54;97844.69;;;9.55;67.77
10587;BME280;5341;47.606;7.576;2023-01-09T11:19:22;97850.03;;;9.55;67.50
10587;BME280;5341;47.606;7.576;2023-01-09T11:22:05;97859.50;;;9.57;67.69
10587;BME280;5341;47.606;7.576;2023-01-09T11:24:34;97871.19;;;9.56;67.34
10587;BME280;5341;47.606;7.576;2023-01-09T11:27:20;97870.56;;;9.54;66.97
10587;BME280;5341;47.606;7.576;2023-01-09T11:30:13;97861.94;;;9.52;66.75
10587;BME280;5341;47.606;7.576;2023-01-09T11:32:42;97871.56;;;9.53;67.19
10587;BME280;5341;47.606;7.576;2023-01-09T11:35:23;97878.34;;;9.56;66.74
10587;BME280;5341;47.606;7.576;2023-01-09T11:37:59;97880.66;;;9.59;67.08
10587;BME280;5341;47.606;7.576;2023-01-09T11:40:37;97882.94;;;9.62;67.21
10587;BME280;5341;47.606;7.576;2023-01-09T11:43:14;97884.38;;;9.64;67.57
10587;BME280;5341;47.606;7.576;2023-01-09T11:45:46;97878.44;;;9.69;67.32
10587;BME280;5341;47.606;7.576;2023-01-09T11:48:16;97885.44;;;9.77;67.28
10587;BME280;5341;47.606;7.576;2023-01-09T11:50:53;97884.69;;;9.83;67.23
10587;BME280;5341;47.606;7.576;2023-01-09T11:53:21;97878.94;;;9.86;66.73
10587;BME280;5341;47.606;7.576;2023-01-09T11:55:57;97878.31;;;9.90;66.87
10587;BME280;5341;47.606;7.576;2023-01-09T11:58:30;97872.19;;;9.96;66.37
10587;BME280;5341;47.606;7.576;2023-01-09T12:01:07;97871.16;;;9.97;65.48
10587;BME280;5341;47.606;7.576;2023-01-09T12:03:55;97863.75;;;9.93;65.52
10587;BME280;5341;47.606;7.576;2023-01-09T12:06:31;97874.41;;;9.93;66.16
10587;BME280;5341;47.606;7.576;2023-01-09T12:09:05;97868.50;;;9.97;65.69
10587;BME280;5341;47.606;7.576;2023-01-09T12:11:40;97856.19;;;10.03;65.46
10587;BME280;5341;47.606;7.576;2023-01-09T12:14:40;97859.91;;;10.09;66.22
10587;BME280;5341;47.606;7.576;2023-01-09T12:17:25;97844.31;;;10.19;65.98
10587;BME280;5341;47.606;7.576;2023-01-09T12:20:12;97837.16;;;10.26;65.64
10587;BME280;5341;47.606;7.576;2023-01-09T12:22:48;97836.75;;;10.29;65.56
10587;BME280;5341;47.606;7.576;2023-01-09T12:25:30;97840.88;;;10.32;65.16
10587;BME280;5341;47.606;7.576;2023-01-09T12:28:25;97827.72;;;10.37;64.72
10587;BME280;5341;47.606;7.576;2023-01-09T12:31:05;97825.66;;;10.39;64.69
10587;BME280;5341;47.606;7.576;2023-01-09T12:33:41;97820.09;;;10.40;64.43
10587;BME280;5341;47.606;7.576;2023-01-09T12:36:17;97828.34;;;10.45;64.16
10587;BME280;5341;47.606;7.576;2023-01-09T12:38:53;97838.00;;;10.46;63.66
10587;BME280;5341;47.606;7.576;2023-01-09T12:41:37;97840.47;;;10.48;63.27
10587;BME280;5341;47.606;7.576;2023-01-09T12:44:24;97862.69;;;10.48;62.63
10587;BME280;5341;47.606;7.576;2023-01-09T12:47:03;97878.72;;;10.42;63.30
10587;BME280;5341;47.606;7.576;2023-01-09T12:49:35;97887.34;;;10.37;63.47
10587;BME280;5341;47.606;7.576;2023-01-09T12:52:09;97877.84;;;10.28;63.66
10587;BME280;5341;47.606;7.576;2023-01-09T12:54:41;97869.63;;;10.23;64.42
10587;BME280;5341;47.606;7.576;2023-01-09T12:57:17;97868.97;;;10.21;64.94
10587;BME280;5341;47.606;7.576;2023-01-09T12:59:54;97857.72;;;10.25;65.14
10587;BME280;5341;47.606;7.576;2023-01-09T13:02:35;97854.25;;;10.32;65.51
10587;BME280;5341;47.606;7.576;2023-01-09T13:05:13;97852.59;;;10.37;66.49
10587;BME280;5341;47.606;7.576;2023-01-09T13:07:47;97845.41;;;10.44;66.36
10587;BME280;5341;47.606;7.576;2023-01-09T13:10:21;97840.28;;;10.49;66.37
10587;BME280;5341;47.606;7.576;2023-01-09T13:12:50;97844.00;;;10.55;66.57
10587;BME280;5341;47.606;7.576;2023-01-09T13:15:26;97839.47;;;10.62;66.08
10587;BME280;5341;47.606;7.576;2023-01-09T13:18:04;97832.69;;;10.66;66.74
10587;BME280;5341;47.606;7.576;2023-01-09T13:20:37;97831.47;;;10.69;66.51
10587;BME280;5341;47.606;7.576;2023-01-09T13:23:12;97844.41;;;10.72;66.13
10587;BME280;5341;47.606;7.576;2023-01-09T13:25:43;97837.81;;;10.74;65.51
10587;BME280;5341;47.606;7.576;2023-01-09T13:28:16;97850.78;;;10.77;65.49
10587;BME280;5341;47.606;7.576;2023-01-09T13:31:05;97849.78;;;10.78;64.82
10587;BME280;5341;47.606;7.576;2023-01-09T13:33:39;97848.53;;;10.81;65.83
10587;BME280;5341;47.606;7.576;2023-01-09T13:36:23;97842.34;;;10.80;64.88
10587;BME280;5341;47.606;7.576;2023-01-09T13:39:01;97853.06;;;10.80;64.77
10587;BME280;5341;47.606;7.576;2023-01-09T13:41:34;97850.38;;;10.80;64.55
10587;BME280;5341;47.606;7.576;2023-01-09T13:44:30;97863.31;;;10.77;65.11
10587;BME280;5341;47.606;7.576;2023-01-09T13:47:00;97859.22;;;10.74;64.79
10587;BME280;5341;47.606;7.576;2023-01-09T13:49:56;97866.22;;;10.69;64.11
10587;BME280;5341;47.606;7.576;2023-01-09T13:52:31;97878.31;;;10.65;64.55
10587;BME280;5341;47.606;7.576;2023-01-09T13:58:18;97899.66;;;10.38;64.62
10587;BME280;5341;47.606;7.576;2023-01-09T14:00:49;97897.59;;;10.27;65.48